sensor_id;sensor_type;location;lat;lon;timestamp;temperature;humidity
5743;DHT22;2896;53.500;10.020;2023-06-26T00:01:04;19.70;1.00
5743;DHT22;2896;53.500;10.020;2023-06-26T00:03:31;19.80;1.00
5743;DHT22;2896;53.500;10.020;2023-06-26T00:05:58;19.70;1.00
5743;DHT22;2896;53.500;10.020;2023-06-26T00:08:26;19.70;1.00
5743;DHT22;2896;53.500;10.020;2023-06-26T00:10:52;19.60;1.00
5743;DHT22;2896;53.500;10.020;2023-06-26T00:13:23;19.60;1.00
5743;DHT22;2896;53.500;10.020;2023-06-26T00:15:50;19.60;1.00
5743;DHT22;2896;53.500;10.020;2023-06-26T00:18:17;19.60;1.00
5743;DHT22;2896;53.500;10.020;2023-06-26T00:20:43;19.50;1.00
5743;DHT22;2896;53.500;10.020;2023-06-26T00:23:11;19.50;1.00
5743;DHT22;2896;53.500;10.020;2023-06-26T00:25:38;19.40;1.00
5743;DHT22;2896;53.500;10.020;2023-06-26T00:28:05;19.40;1.00
5743;DHT22;2896;53.500;10.020;2023-06-26T00:30:33;19.40;1.00
5743;DHT22;2896;53.500;10.020;2023-06-26T00:32:59;19.30;1.00
5743;DHT22;2896;53.500;10.020;2023-06-26T00:35:26;19.30;1.00
5743;DHT22;2896;53.500;10.020;2023-06-26T00:37:53;19.30;1.00
5743;DHT22;2896;53.500;10.020;2023-06-26T00:40:19;19.20;1.00
5743;DHT22;2896;53.500;10.020;2023-06-26T00:42:46;19.20;1.00
5743;DHT22;2896;53.500;10.020;2023-06-26T00:45:13;19.20;1.00
5743;DHT22;2896;53.500;10.020;2023-06-26T00:47:41;19.10;1.00
5743;DHT22;2896;53.500;10.020;2023-06-26T00:50:08;19.10;1.00
5743;DHT22;2896;53.500;10.020;2023-06-26T00:52:35;19.10;1.00
5743;DHT22;2896;53.500;10.020;2023-06-26T00:55:02;19.10;1.00
5743;DHT22;2896;53.500;10.020;2023-06-26T00:57:30;19.10;1.00
5743;DHT22;2896;53.500;10.020;2023-06-26T00:59:56;19.00;1.00
5743;DHT22;2896;53.500;10.020;2023-06-26T01:02:23;19.00;1.00
5743;DHT22;2896;53.500;10.020;2023-06-26T01:04:52;19.00;1.00
5743;DHT22;2896;53.500;10.020;2023-06-26T01:07:20;17.70;1.00
5743;DHT22;2896;53.500;10.020;2023-06-26T01:09:48;19.00;1.00
5743;DHT22;2896;53.500;10.020;2023-06-26T01:12:15;18.90;1.00
5743;DHT22;2896;53.500;10.020;2023-06-26T01:14:42;18.90;1.00
5743;DHT22;2896;53.500;10.020;2023-06-26T01:17:09;18.80;1.00
5743;DHT22;2896;53.500;10.020;2023-06-26T01:19:39;18.80;6.30
5743;DHT22;2896;53.500;10.020;2023-06-26T01:22:15;18.80;1.00
5743;DHT22;2896;53.500;10.020;2023-06-26T01:24:53;18.70;1.00
5743;DHT22;2896;53.500;10.020;2023-06-26T01:27:24;18.70;23.40
5743;DHT22;2896;53.500;10.020;2023-06-26T01:29:53;18.70;6.40
5743;DHT22;2896;53.500;10.020;2023-06-26T01:32:20;18.70;18.40
5743;DHT22;2896;53.500;10.020;2023-06-26T01:34:47;18.70;37.40
5743;DHT22;2896;53.500;10.020;2023-06-26T01:37:14;18.70;30.80
5743;DHT22;2896;53.500;10.020;2023-06-26T01:39:40;18.60;36.90
5743;DHT22;2896;53.500;10.020;2023-06-26T01:42:07;18.60;61.40
5743;DHT22;2896;53.500;10.020;2023-06-26T01:44:37;18.60;99.90
5743;DHT22;2896;53.500;10.020;2023-06-26T01:47:08;18.70;99.90
5743;DHT22;2896;53.500;10.020;2023-06-26T01:49:45;18.60;99.90
5743;DHT22;2896;53.500;10.020;2023-06-26T01:52:19;18.60;99.90
5743;DHT22;2896;53.500;10.020;2023-06-26T01:54:55;18.60;99.90
5743;DHT22;2896;53.500;10.020;2023-06-26T01:57:26;18.50;99.90
5743;DHT22;2896;53.500;10.020;2023-06-26T01:59:55;18.50;99.90
5743;DHT22;2896;53.500;10.020;2023-06-26T02:02:23;18.50;99.90
5743;DHT22;2896;53.500;10.020;2023-06-26T02:04:50;18.50;99.90
5743;DHT22;2896;53.500;10.020;2023-06-26T02:07:17;18.40;99.90
5743;DHT22;2896;53.500;10.020;2023-06-26T02:09:43;18.40;99.90
5743;DHT22;2896;53.500;10.020;2023-06-26T02:12:10;18.40;99.90
5743;DHT22;2896;53.500;10.020;2023-06-26T02:14:37;18.40;99.90
5743;DHT22;2896;53.500;10.020;2023-06-26T02:17:05;18.40;99.90
5743;DHT22;2896;53.500;10.020;2023-06-26T02:19:32;18.40;99.90
5743;DHT22;2896;53.500;10.020;2023-06-26T02:21:58;18.40;99.90
5743;DHT22;2896;53.500;10.020;2023-06-26T02:24:25;18.50;99.90
5743;DHT22;2896;53.500;10.020;2023-06-26T02:26:55;18.40;99.90
5743;DHT22;2896;53.500;10.020;2023-06-26T02:29:21;18.40;99.90
5743;DHT22;2896;53.500;10.020;2023-06-26T02:31:48;18.40;99.90
5743;DHT22;2896;53.500;10.020;2023-06-26T02:34:16;18.40;99.90
5743;DHT22;2896;53.500;10.020;2023-06-26T02:36:43;18.40;99.90
5743;DHT22;2896;53.500;10.020;2023-06-26T02:39:10;18.30;99.90
5743;DHT22;2896;53.500;10.020;2023-06-26T02:41:37;18.40;99.90
5743;DHT22;2896;53.500;10.020;2023-06-26T02:44:03;18.40;99.90
5743;DHT22;2896;53.500;10.020;2023-06-26T02:46:30;18.40;99.90
5743;DHT22;2896;53.500;10.020;2023-06-26T02:48:57;18.40;99.90
5743;DHT22;2896;53.500;10.020;2023-06-26T02:51:25;18.30;99.90
5743;DHT22;2896;53.500;10.020;2023-06-26T02:53:51;18.30;99.90
5743;DHT22;2896;53.500;10.020;2023-06-26T02:56:18;18.30;99.90
5743;DHT22;2896;53.500;10.020;2023-06-26T02:58:44;18.20;99.90
5743;DHT22;2896;53.500;10.020;2023-06-26T03:01:11;18.20;99.90
5743;DHT22;2896;53.500;10.020;2023-06-26T03:03:38;18.20;99.90
5743;DHT22;2896;53.500;10.020;2023-06-26T03:06:06;18.30;99.90
5743;DHT22;2896;53.500;10.020;2023-06-26T03:08:37;18.30;99.90
5743;DHT22;2896;53.500;10.020;2023-06-26T03:11:04;18.30;99.90
5743;DHT22;2896;53.500;10.020;2023-06-26T03:13:30;18.30;99.90
5743;DHT22;2896;53.500;10.020;2023-06-26T03:15:57;18.30;99.90
5743;DHT22;2896;53.500;10.020;2023-06-26T03:18:23;18.30;99.90
5743;DHT22;2896;53.500;10.020;2023-06-26T03:20:51;18.30;99.90
5743;DHT22;2896;53.500;10.020;2023-06-26T03:23:19;18.30;99.90
5743;DHT22;2896;53.500;10.020;2023-06-26T03:25:47;18.40;99.90
5743;DHT22;2896;53.500;10.020;2023-06-26T03:28:14;18.40;99.90
5743;DHT22;2896;53.500;10.020;2023-06-26T03:30:41;18.50;99.90
5743;DHT22;2896;53.500;10.020;2023-06-26T03:33:07;18.40;99.90
5743;DHT22;2896;53.500;10.020;2023-06-26T03:35:34;18.50;99.90
5743;DHT22;2896;53.500;10.020;2023-06-26T03:38:01;18.50;99.90
5743;DHT22;2896;53.500;10.020;2023-06-26T03:40:28;18.50;99.90
5743;DHT22;2896;53.500;10.020;2023-06-26T03:42:55;18.40;99.90
5743;DHT22;2896;53.500;10.020;2023-06-26T03:45:22;18.50;99.90
5743;DHT22;2896;53.500;10.020;2023-06-26T03:47:49;18.60;99.90
5743;DHT22;2896;53.500;10.020;2023-06-26T03:50:15;18.60;99.90
5743;DHT22;2896;53.500;10.020;2023-06-26T03:52:42;18.60;99.90
5743;DHT22;2896;53.500;10.020;2023-06-26T03:55:09;18.60;99.90
5743;DHT22;2896;53.500;10.020;2023-06-26T03:57:35;18.70;99.90
5743;DHT22;2896;53.500;10.020;2023-06-26T04:00:04;18.70;99.90
5743;DHT22;2896;53.500;10.020;2023-06-26T04:02:33;18.80;99.90
5743;DHT22;2896;53.500;10.020;2023-06-26T04:05:00;17.20;99.90
5743;DHT22;2896;53.500;10.020;2023-06-26T04:07:27;18.90;90.80
5743;DHT22;2896;53.500;10.020;2023-06-26T04:09:54;19.00;66.00
5743;DHT22;2896;53.500;10.020;2023-06-26T04:12:20;18.90;39.90
5743;DHT22;2896;53.500;10.020;2023-06-26T04:14:47;19.00;59.80
5743;DHT22;2896;53.500;10.020;2023-06-26T04:17:15;19.00;50.90
5743;DHT22;2896;53.500;10.020;2023-06-26T04:19:41;19.00;59.40
5743;DHT22;2896;53.500;10.020;2023-06-26T04:22:08;19.10;52.70
5743;DHT22;2896;53.500;10.020;2023-06-26T04:24:35;19.20;18.80
5743;DHT22;2896;53.500;10.020;2023-06-26T04:27:01;19.10;18.40
5743;DHT22;2896;53.500;10.020;2023-06-26T04:29:28;16.30;33.00
5743;DHT22;2896;53.500;10.020;2023-06-26T04:31:55;19.20;29.70
5743;DHT22;2896;53.500;10.020;2023-06-26T04:34:24;19.20;48.10
5743;DHT22;2896;53.500;10.020;2023-06-26T04:36:51;19.30;27.00
5743;DHT22;2896;53.500;10.020;2023-06-26T04:39:18;19.30;27.50
5743;DHT22;2896;53.500;10.020;2023-06-26T04:41:44;19.30;41.40
5743;DHT22;2896;53.500;10.020;2023-06-26T04:44:11;19.30;24.40
5743;DHT22;2896;53.500;10.020;2023-06-26T04:46:38;19.40;39.30
5743;DHT22;2896;53.500;10.020;2023-06-26T04:49:06;19.40;67.00
5743;DHT22;2896;53.500;10.020;2023-06-26T04:51:34;19.50;1.00
5743;DHT22;2896;53.500;10.020;2023-06-26T04:54:05;19.50;1.00
5743;DHT22;2896;53.500;10.020;2023-06-26T04:56:32;19.60;1.00
5743;DHT22;2896;53.500;10.020;2023-06-26T04:58:59;19.60;1.00
5743;DHT22;2896;53.500;10.020;2023-06-26T05:01:25;19.60;1.00
5743;DHT22;2896;53.500;10.020;2023-06-26T05:03:54;19.70;1.00
5743;DHT22;2896;53.500;10.020;2023-06-26T05:06:21;19.80;1.00
5743;DHT22;2896;53.500;10.020;2023-06-26T05:08:49;19.80;1.00
5743;DHT22;2896;53.500;10.020;2023-06-26T05:11:16;19.90;1.00
5743;DHT22;2896;53.500;10.020;2023-06-26T05:13:43;19.90;1.00
5743;DHT22;2896;53.500;10.020;2023-06-26T05:16:09;20.00;5.10
5743;DHT22;2896;53.500;10.020;2023-06-26T05:18:36;20.00;21.30
5743;DHT22;2896;53.500;10.020;2023-06-26T05:21:04;20.10;18.90
5743;DHT22;2896;53.500;10.020;2023-06-26T05:23:32;20.10;1.00
5743;DHT22;2896;53.500;10.020;2023-06-26T05:26:01;20.20;1.00
5743;DHT22;2896;53.500;10.020;2023-06-26T05:28:29;20.40;1.00
5743;DHT22;2896;53.500;10.020;2023-06-26T05:30:57;20.50;1.00
5743;DHT22;2896;53.500;10.020;2023-06-26T05:33:26;20.60;1.00
5743;DHT22;2896;53.500;10.020;2023-06-26T05:35:53;20.60;1.00
5743;DHT22;2896;53.500;10.020;2023-06-26T05:38:20;20.70;1.00
5743;DHT22;2896;53.500;10.020;2023-06-26T05:40:47;20.80;1.00
5743;DHT22;2896;53.500;10.020;2023-06-26T05:43:16;20.90;1.00
5743;DHT22;2896;53.500;10.020;2023-06-26T05:45:46;21.00;1.00
5743;DHT22;2896;53.500;10.020;2023-06-26T05:48:13;21.10;1.00
5743;DHT22;2896;53.500;10.020;2023-06-26T05:50:40;21.20;1.00
5743;DHT22;2896;53.500;10.020;2023-06-26T05:53:07;21.30;1.00
5743;DHT22;2896;53.500;10.020;2023-06-26T05:55:35;21.50;1.00
5743;DHT22;2896;53.500;10.020;2023-06-26T05:58:02;21.50;1.00
5743;DHT22;2896;53.500;10.020;2023-06-26T06:00:31;21.60;1.00
5743;DHT22;2896;53.500;10.020;2023-06-26T06:02:57;21.70;1.00
5743;DHT22;2896;53.500;10.020;2023-06-26T06:05:24;21.90;1.00
5743;DHT22;2896;53.500;10.020;2023-06-26T06:07:50;22.00;1.00
5743;DHT22;2896;53.500;10.020;2023-06-26T06:10:17;22.00;1.00
5743;DHT22;2896;53.500;10.020;2023-06-26T06:12:44;22.10;1.00
5743;DHT22;2896;53.500;10.020;2023-06-26T06:15:10;22.30;1.00
5743;DHT22;2896;53.500;10.020;2023-06-26T06:17:38;22.30;1.00
5743;DHT22;2896;53.500;10.020;2023-06-26T06:20:05;22.40;99.90
5743;DHT22;2896;53.500;10.020;2023-06-26T06:22:32;22.50;99.90
5743;DHT22;2896;53.500;10.020;2023-06-26T06:24:59;22.60;99.90
5743;DHT22;2896;53.500;10.020;2023-06-26T06:27:27;22.70;99.90
5743;DHT22;2896;53.500;10.020;2023-06-26T06:29:53;22.80;99.90
5743;DHT22;2896;53.500;10.020;2023-06-26T06:32:20;23.00;99.90
5743;DHT22;2896;53.500;10.020;2023-06-26T06:34:48;23.10;99.90
5743;DHT22;2896;53.500;10.020;2023-06-26T06:37:15;23.10;99.90
5743;DHT22;2896;53.500;10.020;2023-06-26T06:39:41;23.20;99.90
5743;DHT22;2896;53.500;10.020;2023-06-26T06:42:08;23.30;99.90
5743;DHT22;2896;53.500;10.020;2023-06-26T06:44:35;23.50;99.90
5743;DHT22;2896;53.500;10.020;2023-06-26T06:47:01;23.70;99.90
5743;DHT22;2896;53.500;10.020;2023-06-26T06:49:28;23.80;99.90
5743;DHT22;2896;53.500;10.020;2023-06-26T06:51:56;23.90;99.90
5743;DHT22;2896;53.500;10.020;2023-06-26T06:54:26;24.00;99.90
5743;DHT22;2896;53.500;10.020;2023-06-26T06:56:52;24.10;99.90
5743;DHT22;2896;53.500;10.020;2023-06-26T06:59:19;24.20;99.90
5743;DHT22;2896;53.500;10.020;2023-06-26T07:01:46;24.20;99.90
5743;DHT22;2896;53.500;10.020;2023-06-26T07:04:12;24.30;99.90
5743;DHT22;2896;53.500;10.020;2023-06-26T07:06:39;24.30;99.90
5743;DHT22;2896;53.500;10.020;2023-06-26T07:09:07;24.50;99.90
5743;DHT22;2896;53.500;10.020;2023-06-26T07:11:33;24.60;99.90
5743;DHT22;2896;53.500;10.020;2023-06-26T07:14:00;24.70;99.90
5743;DHT22;2896;53.500;10.020;2023-06-26T07:16:26;24.80;99.90
5743;DHT22;2896;53.500;10.020;2023-06-26T07:18:53;25.00;99.90
5743;DHT22;2896;53.500;10.020;2023-06-26T07:21:20;25.00;99.90
5743;DHT22;2896;53.500;10.020;2023-06-26T07:23:47;25.10;99.90
5743;DHT22;2896;53.500;10.020;2023-06-26T07:26:15;25.20;99.90
5743;DHT22;2896;53.500;10.020;2023-06-26T07:28:42;25.30;99.90
5743;DHT22;2896;53.500;10.020;2023-06-26T07:31:08;25.40;99.90
5743;DHT22;2896;53.500;10.020;2023-06-26T07:33:35;25.50;99.90
5743;DHT22;2896;53.500;10.020;2023-06-26T07:36:02;25.60;99.90
5743;DHT22;2896;53.500;10.020;2023-06-26T07:38:29;25.80;99.90
5743;DHT22;2896;53.500;10.020;2023-06-26T07:40:55;26.00;99.90
5743;DHT22;2896;53.500;10.020;2023-06-26T07:43:23;26.20;99.90
5743;DHT22;2896;53.500;10.020;2023-06-26T07:45:50;26.40;99.90
5743;DHT22;2896;53.500;10.020;2023-06-26T07:48:18;26.50;99.90
5743;DHT22;2896;53.500;10.020;2023-06-26T07:50:45;26.60;99.90
5743;DHT22;2896;53.500;10.020;2023-06-26T07:53:11;26.90;99.90
5743;DHT22;2896;53.500;10.020;2023-06-26T07:55:38;26.90;99.90
5743;DHT22;2896;53.500;10.020;2023-06-26T07:58:05;27.10;99.90
5743;DHT22;2896;53.500;10.020;2023-06-26T08:00:33;27.30;99.90
5743;DHT22;2896;53.500;10.020;2023-06-26T08:02:59;24.80;99.90
5743;DHT22;2896;53.500;10.020;2023-06-26T08:05:26;27.30;99.90
5743;DHT22;2896;53.500;10.020;2023-06-26T08:07:53;27.30;99.90
5743;DHT22;2896;53.500;10.020;2023-06-26T08:10:19;27.60;99.90
5743;DHT22;2896;53.500;10.020;2023-06-26T08:12:46;27.80;99.90
5743;DHT22;2896;53.500;10.020;2023-06-26T08:15:14;27.90;99.90
5743;DHT22;2896;53.500;10.020;2023-06-26T08:17:42;27.90;99.90
5743;DHT22;2896;53.500;10.020;2023-06-26T08:20:09;28.00;99.90
5743;DHT22;2896;53.500;10.020;2023-06-26T08:22:36;28.00;99.90
5743;DHT22;2896;53.500;10.020;2023-06-26T08:25:04;27.90;99.90
5743;DHT22;2896;53.500;10.020;2023-06-26T08:27:31;28.00;99.90
5743;DHT22;2896;53.500;10.020;2023-06-26T08:29:58;28.10;99.90
5743;DHT22;2896;53.500;10.020;2023-06-26T08:32:25;28.50;99.90
5743;DHT22;2896;53.500;10.020;2023-06-26T08:34:52;28.90;99.90
5743;DHT22;2896;53.500;10.020;2023-06-26T08:37:19;29.00;99.90
5743;DHT22;2896;53.500;10.020;2023-06-26T08:39:46;29.20;99.90
5743;DHT22;2896;53.500;10.020;2023-06-26T08:42:12;29.10;99.90
5743;DHT22;2896;53.500;10.020;2023-06-26T08:44:39;29.00;99.90
5743;DHT22;2896;53.500;10.020;2023-06-26T08:47:06;29.00;99.90
5743;DHT22;2896;53.500;10.020;2023-06-26T08:49:37;28.90;99.90
5743;DHT22;2896;53.500;10.020;2023-06-26T08:52:13;29.00;99.90
5743;DHT22;2896;53.500;10.020;2023-06-26T08:54:45;28.90;99.90
5743;DHT22;2896;53.500;10.020;2023-06-26T08:57:14;29.10;99.90
5743;DHT22;2896;53.500;10.020;2023-06-26T08:59:44;29.10;99.90
5743;DHT22;2896;53.500;10.020;2023-06-26T09:02:12;29.30;99.90
5743;DHT22;2896;53.500;10.020;2023-06-26T09:04:39;29.40;99.90
5743;DHT22;2896;53.500;10.020;2023-06-26T09:07:06;29.40;99.90
5743;DHT22;2896;53.500;10.020;2023-06-26T09:09:35;29.20;99.90
5743;DHT22;2896;53.500;10.020;2023-06-26T09:12:02;29.40;99.90
5743;DHT22;2896;53.500;10.020;2023-06-26T09:14:29;29.80;99.90
5743;DHT22;2896;53.500;10.020;2023-06-26T09:16:56;29.70;99.90
5743;DHT22;2896;53.500;10.020;2023-06-26T09:19:22;29.90;99.90
5743;DHT22;2896;53.500;10.020;2023-06-26T09:21:50;29.80;99.90
5743;DHT22;2896;53.500;10.020;2023-06-26T09:24:17;29.70;99.90
5743;DHT22;2896;53.500;10.020;2023-06-26T09:26:45;29.70;99.90
5743;DHT22;2896;53.500;10.020;2023-06-26T09:29:13;29.60;99.90
5743;DHT22;2896;53.500;10.020;2023-06-26T09:31:40;29.60;99.90
5743;DHT22;2896;53.500;10.020;2023-06-26T09:34:08;29.90;99.90
5743;DHT22;2896;53.500;10.020;2023-06-26T09:36:35;29.80;99.90
5743;DHT22;2896;53.500;10.020;2023-06-26T09:39:02;30.20;99.90
5743;DHT22;2896;53.500;10.020;2023-06-26T09:41:30;30.80;99.90
5743;DHT22;2896;53.500;10.020;2023-06-26T09:44:01;30.80;99.90
5743;DHT22;2896;53.500;10.020;2023-06-26T09:46:29;29.80;99.90
5743;DHT22;2896;53.500;10.020;2023-06-26T09:49:03;29.30;99.90
5743;DHT22;2896;53.500;10.020;2023-06-26T09:51:31;29.00;99.90
5743;DHT22;2896;53.500;10.020;2023-06-26T09:53:58;28.70;99.90
5743;DHT22;2896;53.500;10.020;2023-06-26T09:56:24;28.40;99.90
5743;DHT22;2896;53.500;10.020;2023-06-26T09:58:51;28.20;99.90
5743;DHT22;2896;53.500;10.020;2023-06-26T10:01:19;27.80;99.90
5743;DHT22;2896;53.500;10.020;2023-06-26T10:03:46;28.00;99.90
5743;DHT22;2896;53.500;10.020;2023-06-26T10:06:13;27.70;99.90
5743;DHT22;2896;53.500;10.020;2023-06-26T10:08:41;27.00;99.90
5743;DHT22;2896;53.500;10.020;2023-06-26T10:11:14;26.80;99.90
5743;DHT22;2896;53.500;10.020;2023-06-26T10:13:43;26.60;99.90
5743;DHT22;2896;53.500;10.020;2023-06-26T10:16:12;26.20;99.90
5743;DHT22;2896;53.500;10.020;2023-06-26T10:18:43;25.80;99.90
5743;DHT22;2896;53.500;10.020;2023-06-26T10:21:11;25.40;99.90
5743;DHT22;2896;53.500;10.020;2023-06-26T10:23:39;25.10;99.90
5743;DHT22;2896;53.500;10.020;2023-06-26T10:26:07;24.80;99.90
5743;DHT22;2896;53.500;10.020;2023-06-26T10:28:35;24.20;99.90
5743;DHT22;2896;53.500;10.020;2023-06-26T10:31:04;23.80;99.90
5743;DHT22;2896;53.500;10.020;2023-06-26T10:33:32;23.50;99.90
5743;DHT22;2896;53.500;10.020;2023-06-26T10:36:14;23.40;99.90
5743;DHT22;2896;53.500;10.020;2023-06-26T10:38:51;23.10;1.00
5743;DHT22;2896;53.500;10.020;2023-06-26T10:41:22;23.00;1.00
5743;DHT22;2896;53.500;10.020;2023-06-26T10:43:50;26.00;1.00
5743;DHT22;2896;53.500;10.020;2023-06-26T10:46:18;22.80;1.00
5743;DHT22;2896;53.500;10.020;2023-06-26T10:49:06;22.80;1.00
5743;DHT22;2896;53.500;10.020;2023-06-26T10:51:46;22.60;1.00
5743;DHT22;2896;53.500;10.020;2023-06-26T10:54:15;22.50;1.00
5743;DHT22;2896;53.500;10.020;2023-06-26T10:56:42;22.40;1.00
5743;DHT22;2896;53.500;10.020;2023-06-26T10:59:17;22.40;1.00
5743;DHT22;2896;53.500;10.020;2023-06-26T11:01:45;22.60;1.00
5743;DHT22;2896;53.500;10.020;2023-06-26T11:04:13;22.70;1.00
5743;DHT22;2896;53.500;10.020;2023-06-26T11:06:45;22.80;1.00
5743;DHT22;2896;53.500;10.020;2023-06-26T11:09:15;22.90;1.00
5743;DHT22;2896;53.500;10.020;2023-06-26T11:11:59;23.00;1.00
5743;DHT22;2896;53.500;10.020;2023-06-26T11:14:30;23.10;1.00
5743;DHT22;2896;53.500;10.020;2023-06-26T11:16:57;23.80;1.00
5743;DHT22;2896;53.500;10.020;2023-06-26T11:19:26;23.90;1.00
5743;DHT22;2896;53.500;10.020;2023-06-26T11:22:01;23.80;1.00
5743;DHT22;2896;53.500;10.020;2023-06-26T11:24:29;23.90;1.00
5743;DHT22;2896;53.500;10.020;2023-06-26T11:27:00;24.10;1.00
5743;DHT22;2896;53.500;10.020;2023-06-26T11:29:27;24.20;1.00
5743;DHT22;2896;53.500;10.020;2023-06-26T11:31:59;24.10;99.90
5743;DHT22;2896;53.500;10.020;2023-06-26T11:34:29;24.10;99.90
5743;DHT22;2896;53.500;10.020;2023-06-26T11:36:56;24.30;99.90
5743;DHT22;2896;53.500;10.020;2023-06-26T11:39:24;24.50;99.90
5743;DHT22;2896;53.500;10.020;2023-06-26T11:41:51;24.50;99.90
5743;DHT22;2896;53.500;10.020;2023-06-26T11:44:18;24.70;99.90
5743;DHT22;2896;53.500;10.020;2023-06-26T11:46:46;25.20;99.90
5743;DHT22;2896;53.500;10.020;2023-06-26T11:49:16;25.80;99.90
5743;DHT22;2896;53.500;10.020;2023-06-26T11:51:43;25.70;99.90
5743;DHT22;2896;53.500;10.020;2023-06-26T11:54:09;25.50;99.90
5743;DHT22;2896;53.500;10.020;2023-06-26T11:56:39;25.30;99.90
5743;DHT22;2896;53.500;10.020;2023-06-26T11:59:07;25.30;99.90
5743;DHT22;2896;53.500;10.020;2023-06-26T12:01:35;24.90;99.90
5743;DHT22;2896;53.500;10.020;2023-06-26T12:04:03;25.10;99.90
5743;DHT22;2896;53.500;10.020;2023-06-26T12:06:31;25.00;99.90
5743;DHT22;2896;53.500;10.020;2023-06-26T12:09:00;24.70;99.90
5743;DHT22;2896;53.500;10.020;2023-06-26T12:11:27;24.50;99.90
5743;DHT22;2896;53.500;10.020;2023-06-26T12:13:57;24.30;99.90
5743;DHT22;2896;53.500;10.020;2023-06-26T12:16:24;24.40;99.90
5743;DHT22;2896;53.500;10.020;2023-06-26T12:18:51;25.00;99.90
5743;DHT22;2896;53.500;10.020;2023-06-26T12:21:45;25.40;99.90
5743;DHT22;2896;53.500;10.020;2023-06-26T12:24:14;25.30;99.90
5743;DHT22;2896;53.500;10.020;2023-06-26T12:26:42;24.20;99.90
5743;DHT22;2896;53.500;10.020;2023-06-26T12:29:12;26.10;99.90
5743;DHT22;2896;53.500;10.020;2023-06-26T12:31:42;26.50;99.90
5743;DHT22;2896;53.500;10.020;2023-06-26T12:34:10;26.40;99.90
5743;DHT22;2896;53.500;10.020;2023-06-26T12:36:40;26.80;99.90
5743;DHT22;2896;53.500;10.020;2023-06-26T12:39:09;27.10;99.90
5743;DHT22;2896;53.500;10.020;2023-06-26T12:41:47;27.00;99.90
5743;DHT22;2896;53.500;10.020;2023-06-26T12:44:23;27.50;99.90
5743;DHT22;2896;53.500;10.020;2023-06-26T12:46:54;27.60;99.90
5743;DHT22;2896;53.500;10.020;2023-06-26T12:49:29;27.70;99.90
5743;DHT22;2896;53.500;10.020;2023-06-26T12:51:55;27.60;99.90
5743;DHT22;2896;53.500;10.020;2023-06-26T12:54:22;27.80;99.90
5743;DHT22;2896;53.500;10.020;2023-06-26T12:56:49;28.00;99.90
5743;DHT22;2896;53.500;10.020;2023-06-26T12:59:16;27.40;99.90
5743;DHT22;2896;53.500;10.020;2023-06-26T13:01:44;27.50;99.90
5743;DHT22;2896;53.500;10.020;2023-06-26T13:04:10;27.50;99.90
5743;DHT22;2896;53.500;10.020;2023-06-26T13:06:37;27.20;99.90
5743;DHT22;2896;53.500;10.020;2023-06-26T13:09:04;27.50;99.90
5743;DHT22;2896;53.500;10.020;2023-06-26T13:11:30;27.80;99.90
5743;DHT22;2896;53.500;10.020;2023-06-26T13:13:57;28.00;99.90
5743;DHT22;2896;53.500;10.020;2023-06-26T13:16:24;27.80;99.90
5743;DHT22;2896;53.500;10.020;2023-06-26T13:18:52;27.80;99.90
5743;DHT22;2896;53.500;10.020;2023-06-26T13:21:19;27.80;99.90
5743;DHT22;2896;53.500;10.020;2023-06-26T13:23:46;27.80;99.90
5743;DHT22;2896;53.500;10.020;2023-06-26T13:26:13;27.60;99.90
5743;DHT22;2896;53.500;10.020;2023-06-26T13:28:39;27.70;99.90
5743;DHT22;2896;53.500;10.020;2023-06-26T13:31:06;27.50;99.90
5743;DHT22;2896;53.500;10.020;2023-06-26T13:33:32;27.40;99.90
5743;DHT22;2896;53.500;10.020;2023-06-26T13:36:00;27.10;99.90
5743;DHT22;2896;53.500;10.020;2023-06-26T13:38:30;27.10;99.90
5743;DHT22;2896;53.500;10.020;2023-06-26T13:40:56;27.20;99.90
5743;DHT22;2896;53.500;10.020;2023-06-26T13:43:24;27.70;99.90
5743;DHT22;2896;53.500;10.020;2023-06-26T13:45:51;28.00;99.90
5743;DHT22;2896;53.500;10.020;2023-06-26T13:48:18;27.60;99.90
5743;DHT22;2896;53.500;10.020;2023-06-26T13:50:45;27.60;99.90
5743;DHT22;2896;53.500;10.020;2023-06-26T13:53:13;27.70;99.90
5743;DHT22;2896;53.500;10.020;2023-06-26T13:55:40;27.70;99.90
5743;DHT22;2896;53.500;10.020;2023-06-26T13:58:07;27.30;99.90
5743;DHT22;2896;53.500;10.020;2023-06-26T14:00:35;26.90;99.90
5743;DHT22;2896;53.500;10.020;2023-06-26T14:03:03;26.70;99.90
5743;DHT22;2896;53.500;10.020;2023-06-26T14:05:30;26.60;99.90
5743;DHT22;2896;53.500;10.020;2023-06-26T14:07:57;26.70;99.90
5743;DHT22;2896;53.500;10.020;2023-06-26T14:10:24;26.60;99.90
5743;DHT22;2896;53.500;10.020;2023-06-26T14:12:51;26.40;99.90
5743;DHT22;2896;53.500;10.020;2023-06-26T14:15:18;26.80;99.90
5743;DHT22;2896;53.500;10.020;2023-06-26T14:17:45;26.70;99.90
5743;DHT22;2896;53.500;10.020;2023-06-26T14:20:13;26.50;99.90
5743;DHT22;2896;53.500;10.020;2023-06-26T14:22:40;26.30;99.90
5743;DHT22;2896;53.500;10.020;2023-06-26T14:25:07;26.50;99.90
5743;DHT22;2896;53.500;10.020;2023-06-26T14:27:35;26.60;99.90
5743;DHT22;2896;53.500;10.020;2023-06-26T14:30:03;27.10;99.90
5743;DHT22;2896;53.500;10.020;2023-06-26T14:32:29;27.30;99.90
5743;DHT22;2896;53.500;10.020;2023-06-26T14:34:56;27.60;99.90
5743;DHT22;2896;53.500;10.020;2023-06-26T14:37:23;27.50;99.90
5743;DHT22;2896;53.500;10.020;2023-06-26T14:39:50;27.30;99.90
5743;DHT22;2896;53.500;10.020;2023-06-26T14:42:17;27.00;99.90
5743;DHT22;2896;53.500;10.020;2023-06-26T14:44:45;26.60;99.90
5743;DHT22;2896;53.500;10.020;2023-06-26T14:47:12;26.40;99.90
5743;DHT22;2896;53.500;10.020;2023-06-26T14:49:38;26.20;99.90
5743;DHT22;2896;53.500;10.020;2023-06-26T14:52:06;26.30;99.90
5743;DHT22;2896;53.500;10.020;2023-06-26T14:54:34;26.40;99.90
5743;DHT22;2896;53.500;10.020;2023-06-26T14:57:01;26.60;99.90
5743;DHT22;2896;53.500;10.020;2023-06-26T14:59:28;26.00;99.90
5743;DHT22;2896;53.500;10.020;2023-06-26T15:01:56;26.10;99.90
5743;DHT22;2896;53.500;10.020;2023-06-26T15:04:23;25.50;99.90
5743;DHT22;2896;53.500;10.020;2023-06-26T15:06:49;25.60;99.90
5743;DHT22;2896;53.500;10.020;2023-06-26T15:09:16;25.60;99.90
5743;DHT22;2896;53.500;10.020;2023-06-26T15:11:42;25.50;99.90
5743;DHT22;2896;53.500;10.020;2023-06-26T15:14:09;25.60;99.90
5743;DHT22;2896;53.500;10.020;2023-06-26T15:16:36;27.30;99.90
5743;DHT22;2896;53.500;10.020;2023-06-26T15:19:04;26.70;99.90
5743;DHT22;2896;53.500;10.020;2023-06-26T15:21:30;26.20;99.90
5743;DHT22;2896;53.500;10.020;2023-06-26T15:23:57;26.10;99.90
5743;DHT22;2896;53.500;10.020;2023-06-26T15:26:24;25.50;99.90
5743;DHT22;2896;53.500;10.020;2023-06-26T15:28:50;25.10;99.90
5743;DHT22;2896;53.500;10.020;2023-06-26T15:31:19;24.90;99.90
5743;DHT22;2896;53.500;10.020;2023-06-26T15:33:45;24.50;99.90
5743;DHT22;2896;53.500;10.020;2023-06-26T15:36:13;24.50;99.90
5743;DHT22;2896;53.500;10.020;2023-06-26T15:38:40;24.50;99.90
5743;DHT22;2896;53.500;10.020;2023-06-26T15:41:07;24.70;99.90
5743;DHT22;2896;53.500;10.020;2023-06-26T15:43:34;24.80;99.90
5743;DHT22;2896;53.500;10.020;2023-06-26T15:46:01;24.90;99.90
5743;DHT22;2896;53.500;10.020;2023-06-26T15:48:28;25.20;99.90
5743;DHT22;2896;53.500;10.020;2023-06-26T15:50:54;25.40;99.90
5743;DHT22;2896;53.500;10.020;2023-06-26T15:53:34;25.20;99.90